createdAt,value
2022-10-16T00:01:19.142Z,5.50
2022-10-16T00:03:48.199Z,4.50
2022-10-16T00:06:19.053Z,3.65
2022-10-16T00:08:47.717Z,4.57
2022-10-16T00:11:17.669Z,4.32
2022-10-16T00:13:46.393Z,5.72
2022-10-16T00:16:15.387Z,5.10
2022-10-16T00:18:43.730Z,4.57
2022-10-16T00:21:13.401Z,2.35
2022-10-16T00:23:42.727Z,1.80
2022-10-16T00:26:13.693Z,2.90
2022-10-16T00:28:42.390Z,3.65
2022-10-16T00:31:11.661Z,7.32
2022-10-16T00:33:41.158Z,4.93
2022-10-16T00:36:11.176Z,3.22
2022-10-16T00:38:39.698Z,4.25
2022-10-16T00:41:10.173Z,2.20
2022-10-16T00:43:41.073Z,3.45
2022-10-16T00:46:15.742Z,4.28
2022-10-16T00:48:45.353Z,2.53
2022-10-16T00:51:13.278Z,3.28
2022-10-16T00:53:41.124Z,6.07
2022-10-16T00:56:10.313Z,3.75
2022-10-16T00:58:38.082Z,6.25
2022-10-16T01:01:05.828Z,2.75
2022-10-16T01:03:35.917Z,3.67
2022-10-16T01:06:20.142Z,4.18
2022-10-16T01:08:54.629Z,1.80
2022-10-16T01:11:27.618Z,2.55
2022-10-16T01:13:57.480Z,8.00
2022-10-16T01:16:31.401Z,2.15
2022-10-16T01:19:03.649Z,5.75
2022-10-16T01:21:34.006Z,2.50
2022-10-16T01:24:07.804Z,1.50
2022-10-16T01:26:50.461Z,1.90
2022-10-16T01:29:21.108Z,2.70
2022-10-16T01:31:51.624Z,4.82
2022-10-16T01:34:23.477Z,1.85
2022-10-16T01:36:53.809Z,2.00
2022-10-16T01:39:23.638Z,1.85
2022-10-16T01:41:55.914Z,2.67
2022-10-16T01:44:28.103Z,3.83
2022-10-16T01:46:56.312Z,2.85
2022-10-16T01:49:25.509Z,1.20
2022-10-16T01:51:56.525Z,3.67
2022-10-16T01:54:25.609Z,2.65
2022-10-16T01:56:53.622Z,8.07
2022-10-16T01:59:23.463Z,2.25
2022-10-16T02:01:56.990Z,1.73
2022-10-16T02:04:28.749Z,2.72
2022-10-16T02:06:57.037Z,2.53
2022-10-16T02:09:24.853Z,2.47
2022-10-16T02:11:54.887Z,2.85
2022-10-16T02:14:25.583Z,1.52
2022-10-16T02:16:54.701Z,4.18
2022-10-16T02:19:23.347Z,2.67
2022-10-16T02:21:53.356Z,3.67
2022-10-16T02:24:26.347Z,2.45
2022-10-16T02:27:00.786Z,2.80
2022-10-16T02:29:29.082Z,2.53
2022-10-16T02:32:00.861Z,3.20
2022-10-16T02:34:29.752Z,2.08
2022-10-16T02:36:58.369Z,4.88
2022-10-16T02:39:26.520Z,5.72
2022-10-16T02:41:54.229Z,3.15
2022-10-16T02:44:21.964Z,2.75
2022-10-16T02:46:49.713Z,4.28
2022-10-16T02:49:19.005Z,5.28
2022-10-16T02:51:46.792Z,3.05
2022-10-16T02:54:14.658Z,5.35
2022-10-16T02:56:42.366Z,1.73
2022-10-16T02:59:10.180Z,2.50
2022-10-16T03:01:37.942Z,3.83
2022-10-16T03:04:05.966Z,3.90
2022-10-16T03:06:35.118Z,2.83
2022-10-16T03:09:02.851Z,2.53
2022-10-16T03:11:30.593Z,3.30
2022-10-16T03:13:58.319Z,2.78
2022-10-16T03:16:26.019Z,3.80
2022-10-16T03:18:53.756Z,4.28
2022-10-16T03:21:21.501Z,2.78
2022-10-16T03:23:50.603Z,1.40
2022-10-16T03:26:18.373Z,3.80
2022-10-16T03:28:46.144Z,3.38
2022-10-16T03:31:13.904Z,3.40
2022-10-16T03:33:41.673Z,2.58
2022-10-16T03:36:09.376Z,1.45
2022-10-16T03:38:37.155Z,1.20
2022-10-16T03:41:08.618Z,5.63
2022-10-16T03:43:36.868Z,3.08
2022-10-16T03:46:04.726Z,2.75
2022-10-16T03:48:33.073Z,3.58
2022-10-16T03:51:00.979Z,3.33
2022-10-16T03:53:28.697Z,3.85
2022-10-16T03:55:56.474Z,3.28
2022-10-16T03:58:25.797Z,3.88
2022-10-16T04:00:53.559Z,2.92
2022-10-16T04:03:22.314Z,2.20
2022-10-16T04:05:50.234Z,4.93
2022-10-16T04:08:18.161Z,1.80
2022-10-16T04:10:46.236Z,2.72
2022-10-16T04:13:14.380Z,1.85
2022-10-16T04:15:43.624Z,2.00
2022-10-16T04:18:11.352Z,1.92
2022-10-16T04:20:39.294Z,1.45
2022-10-16T04:23:07.091Z,1.77
2022-10-16T04:25:34.855Z,2.45
2022-10-16T04:28:02.671Z,1.35
2022-10-16T04:30:30.446Z,2.65
2022-10-16T04:35:32.186Z,1.85
2022-10-16T04:38:00.085Z,2.55
2022-10-16T04:40:27.817Z,2.53
2022-10-16T04:42:55.681Z,2.10
2022-10-16T04:45:23.409Z,3.58
2022-10-16T04:47:51.176Z,3.08
2022-10-16T04:50:20.289Z,1.23
2022-10-16T04:53:02.807Z,2.28
2022-10-16T04:55:31.330Z,2.58
2022-10-16T04:57:59.173Z,3.67
2022-10-16T05:00:26.999Z,1.08
2022-10-16T05:02:55.108Z,1.13
2022-10-16T05:05:24.288Z,0.80
2022-10-16T05:07:52.081Z,3.63
2022-10-16T05:10:19.806Z,1.08
2022-10-16T05:12:48.600Z,1.35
2022-10-16T05:15:16.497Z,1.67
2022-10-16T05:17:44.877Z,2.38
2022-10-16T05:20:12.840Z,3.88
2022-10-16T05:22:41.956Z,0.60
2022-10-16T05:25:10.141Z,5.68
2022-10-16T05:27:38.091Z,0.80
2022-10-16T05:30:08.633Z,0.73
2022-10-16T05:32:39.293Z,1.63
2022-10-16T05:35:10.152Z,1.25
2022-10-16T05:37:41.767Z,1.10
2022-10-16T05:40:10.617Z,1.25
2022-10-16T05:42:38.446Z,1.60
2022-10-16T05:45:07.573Z,2.30
2022-10-16T05:47:35.329Z,1.98
2022-10-16T05:50:05.036Z,1.77
2022-10-16T05:52:32.794Z,0.90
2022-10-16T05:55:01.912Z,4.45
2022-10-16T05:57:29.883Z,1.58
2022-10-16T05:59:57.676Z,2.33
2022-10-16T06:02:25.418Z,2.33
2022-10-16T06:04:54.069Z,1.50
2022-10-16T06:07:22.179Z,1.45
2022-10-16T06:09:50.677Z,2.38
2022-10-16T06:12:20.265Z,2.45
2022-10-16T06:14:48.348Z,1.67
2022-10-16T06:17:16.409Z,1.00
2022-10-16T06:19:44.328Z,1.48
2022-10-16T06:22:12.152Z,0.88
2022-10-16T06:24:39.927Z,1.15
2022-10-16T06:27:08.176Z,1.88
2022-10-16T06:29:37.322Z,2.45
2022-10-16T06:32:05.346Z,1.92
2022-10-16T06:34:33.094Z,2.58
2022-10-16T06:37:01.006Z,0.82
2022-10-16T06:39:28.730Z,2.17
2022-10-16T06:41:56.496Z,1.90
2022-10-16T06:44:27.593Z,1.95
2022-10-16T06:46:56.818Z,4.25
2022-10-16T06:49:24.803Z,1.35
2022-10-16T06:51:52.523Z,4.28
2022-10-16T06:54:20.294Z,0.95
2022-10-16T06:56:47.969Z,1.92
2022-10-16T06:59:15.706Z,3.85
2022-10-16T07:01:43.461Z,2.05
2022-10-16T07:04:12.595Z,1.10
2022-10-16T07:06:40.512Z,3.80
2022-10-16T07:09:11.167Z,3.20
2022-10-16T07:11:39.681Z,2.22
2022-10-16T07:14:11.164Z,4.22
2022-10-16T07:16:38.900Z,1.73
2022-10-16T07:19:06.681Z,3.25
2022-10-16T07:21:37.355Z,0.90
2022-10-16T07:24:07.275Z,1.90
2022-10-16T07:26:36.986Z,2.22
2022-10-16T07:29:05.310Z,1.02
2022-10-16T07:31:33.263Z,2.72
2022-10-16T07:34:01.826Z,2.50
2022-10-16T07:36:29.801Z,1.55
2022-10-16T07:39:00.274Z,2.72
2022-10-16T07:41:28.957Z,2.90
2022-10-16T07:43:57.420Z,1.70
2022-10-16T07:46:25.390Z,3.03
2022-10-16T07:48:53.227Z,2.38
2022-10-16T07:51:23.412Z,1.65
2022-10-16T07:53:52.022Z,1.17
2022-10-16T07:56:21.929Z,2.35
2022-10-16T07:58:50.685Z,3.15
2022-10-16T08:01:19.122Z,3.17
2022-10-16T08:03:48.513Z,1.25
2022-10-16T08:06:16.796Z,1.92
2022-10-16T08:08:44.874Z,2.40
2022-10-16T08:11:12.811Z,3.45
2022-10-16T08:13:41.916Z,2.25
2022-10-16T08:16:10.826Z,4.80
2022-10-16T08:18:39.561Z,2.97
2022-10-16T08:21:08.806Z,4.00
2022-10-16T08:23:36.741Z,1.35
2022-10-16T08:26:05.827Z,2.40
2022-10-16T08:28:33.791Z,2.55
2022-10-16T08:31:10.437Z,2.67
2022-10-16T08:33:38.686Z,1.77
2022-10-16T08:36:07.568Z,1.20
2022-10-16T08:38:35.678Z,2.42
2022-10-16T08:41:20.038Z,1.70
2022-10-16T08:44:18.771Z,2.20
2022-10-16T08:46:51.708Z,1.15
2022-10-16T08:49:19.772Z,1.02
2022-10-16T08:51:50.378Z,1.65
2022-10-16T08:54:28.370Z,1.48
2022-10-16T08:56:56.805Z,1.83
2022-10-16T08:59:24.589Z,2.90
2022-10-16T09:01:54.065Z,2.55
2022-10-16T09:04:56.835Z,6.28
2022-10-16T09:07:31.003Z,1.25
2022-10-16T09:10:09.542Z,3.78
2022-10-16T09:12:43.397Z,1.42
2022-10-16T09:15:23.267Z,2.05
2022-10-16T09:17:56.998Z,2.85
2022-10-16T09:20:37.476Z,1.77
2022-10-16T09:23:20.052Z,1.05
2022-10-16T09:25:54.300Z,1.38
2022-10-16T09:28:22.164Z,3.25
2022-10-16T09:30:50.843Z,2.75
2022-10-16T09:33:21.714Z,1.90
2022-10-16T09:35:51.189Z,2.33
2022-10-16T09:38:29.194Z,1.88
2022-10-16T09:41:02.478Z,4.05
2022-10-16T09:43:36.159Z,1.58
2022-10-16T09:46:05.406Z,1.75
2022-10-16T09:48:38.835Z,2.05
2022-10-16T09:51:08.954Z,2.17
2022-10-16T09:53:44.043Z,2.42
2022-10-16T09:56:14.735Z,1.17
2022-10-16T09:58:46.426Z,2.40
2022-10-16T10:01:16.499Z,2.03
2022-10-16T10:03:46.468Z,4.47
2022-10-16T10:06:33.162Z,3.40
2022-10-16T10:09:07.932Z,1.05
2022-10-16T10:11:40.863Z,1.65
2022-10-16T10:14:37.086Z,1.00
2022-10-16T10:17:13.130Z,1.35
2022-10-16T10:19:43.793Z,3.35
2022-10-16T10:22:41.782Z,2.33
2022-10-16T10:25:39.218Z,1.83
2022-10-16T10:28:30.072Z,1.95
2022-10-16T10:31:04.578Z,3.03
2022-10-16T10:33:40.630Z,1.70
2022-10-16T10:36:16.840Z,1.67
2022-10-16T10:38:49.881Z,2.25
2022-10-16T10:41:43.848Z,1.08
2022-10-16T10:44:17.917Z,1.35
2022-10-16T10:46:51.338Z,1.02
2022-10-16T10:49:31.957Z,1.98
2022-10-16T10:52:07.717Z,2.53
2022-10-16T10:54:40.296Z,1.67
2022-10-16T10:57:12.658Z,2.22
2022-10-16T10:59:57.156Z,1.42
2022-10-16T11:02:27.714Z,1.48
2022-10-16T11:05:17.448Z,1.50
2022-10-16T11:07:50.739Z,1.42
2022-10-16T11:10:21.512Z,1.65
2022-10-16T11:12:53.594Z,1.48
2022-10-16T11:15:24.036Z,2.80
2022-10-16T11:17:55.018Z,2.97
2022-10-16T11:20:26.800Z,2.50
2022-10-16T11:22:58.929Z,1.92
2022-10-16T11:25:29.196Z,3.90
2022-10-16T11:28:00.317Z,3.60
2022-10-16T11:30:29.869Z,2.13
2022-10-16T11:33:16.891Z,1.25
2022-10-16T11:35:50.000Z,2.05
2022-10-16T11:38:26.464Z,1.98
2022-10-16T11:40:58.080Z,1.35
2022-10-16T11:43:29.291Z,3.10
2022-10-16T11:45:58.415Z,1.38
2022-10-16T11:48:29.932Z,2.45
2022-10-16T11:51:00.656Z,1.23
2022-10-16T11:53:41.024Z,1.75
2022-10-16T11:56:08.927Z,0.50
2022-10-16T11:58:40.570Z,3.30
2022-10-16T12:01:19.396Z,2.55
2022-10-16T12:03:51.611Z,1.17
2022-10-16T12:06:27.641Z,0.93
2022-10-16T12:08:57.480Z,1.00
2022-10-16T12:11:33.108Z,0.77
2022-10-16T12:14:09.790Z,1.88
2022-10-16T12:16:39.089Z,1.52
2022-10-16T12:19:15.672Z,4.10
2022-10-16T12:21:44.034Z,2.50
2022-10-16T12:24:24.446Z,2.00
2022-10-16T12:26:54.361Z,2.58
2022-10-16T12:29:28.600Z,1.85
2022-10-16T12:31:58.356Z,2.13
2022-10-16T12:34:30.466Z,2.63
2022-10-16T12:36:58.812Z,2.53
2022-10-16T12:39:30.345Z,1.45
2022-10-16T12:42:05.842Z,2.83
2022-10-16T12:44:37.642Z,0.80
2022-10-16T12:47:07.559Z,1.08
2022-10-16T12:49:40.793Z,2.78
2022-10-16T12:52:27.770Z,2.03
2022-10-16T12:55:01.694Z,3.00
2022-10-16T12:57:40.097Z,1.08
2022-10-16T13:00:16.059Z,0.47
2022-10-16T13:03:14.441Z,1.02
2022-10-16T13:05:51.141Z,2.17
2022-10-16T13:08:37.692Z,1.08
2022-10-16T13:11:10.790Z,2.20
2022-10-16T13:13:49.076Z,0.38
2022-10-16T13:16:22.906Z,1.27
2022-10-16T13:19:00.069Z,2.80
2022-10-16T13:21:35.877Z,1.45
2022-10-16T13:24:13.012Z,1.70
2022-10-16T13:26:48.126Z,1.80
2022-10-16T13:29:16.497Z,0.75
2022-10-16T13:31:45.324Z,2.38
2022-10-16T13:34:15.980Z,1.52
2022-10-16T13:36:48.765Z,1.63
2022-10-16T13:39:18.865Z,2.05
2022-10-16T13:41:48.684Z,1.75
2022-10-16T13:44:18.556Z,1.23
2022-10-16T13:46:46.302Z,2.25
2022-10-16T13:49:16.295Z,1.77
2022-10-16T13:51:56.250Z,1.27
2022-10-16T13:54:24.128Z,1.85
2022-10-16T13:57:03.328Z,0.68
2022-10-16T13:59:38.630Z,0.85
2022-10-16T14:02:16.660Z,0.95
2022-10-16T14:04:44.486Z,1.13
2022-10-16T14:07:20.613Z,1.92
2022-10-16T14:09:50.570Z,3.38
2022-10-16T14:12:21.904Z,1.10
2022-10-16T14:14:53.763Z,1.33
2022-10-16T14:17:25.125Z,0.82
2022-10-16T14:19:59.557Z,2.40
2022-10-16T14:22:33.057Z,1.35
2022-10-16T14:25:01.510Z,2.60
2022-10-16T14:27:35.326Z,2.30
2022-10-16T14:30:17.093Z,2.65
2022-10-16T14:32:55.920Z,1.55
2022-10-16T14:35:25.846Z,0.93
2022-10-16T14:37:54.642Z,1.65
2022-10-16T14:40:25.806Z,1.27
2022-10-16T14:42:54.955Z,1.85
2022-10-16T14:45:23.575Z,3.22
2022-10-16T14:47:52.980Z,4.05
2022-10-16T14:50:20.721Z,2.30
2022-10-16T14:52:48.493Z,1.05
2022-10-16T14:55:16.588Z,1.05
2022-10-16T14:57:45.261Z,0.98
2022-10-16T15:00:19.026Z,2.42
2022-10-16T15:02:47.233Z,2.88
2022-10-16T15:05:18.172Z,2.92
2022-10-16T15:07:46.358Z,3.40
2022-10-16T15:10:14.314Z,0.90
2022-10-16T15:12:42.179Z,3.47
2022-10-16T15:15:37.395Z,3.35
2022-10-16T15:18:05.665Z,2.20
2022-10-16T15:20:35.288Z,5.00
2022-10-16T15:23:03.550Z,3.05
2022-10-16T15:25:40.571Z,5.07
2022-10-16T15:28:08.858Z,2.92
2022-10-16T15:30:38.921Z,3.35
2022-10-16T15:33:10.766Z,4.72
2022-10-16T15:35:38.545Z,2.35
2022-10-16T15:38:06.275Z,3.03
2022-10-16T15:40:34.005Z,2.63
2022-10-16T15:43:01.774Z,4.20
2022-10-16T15:45:29.499Z,1.77
2022-10-16T15:47:58.592Z,1.63
2022-10-16T15:50:26.398Z,3.85
2022-10-16T15:52:54.508Z,10.43
2022-10-16T15:55:22.225Z,6.53
2022-10-16T15:57:50.121Z,3.00
2022-10-16T16:00:21.690Z,3.60
2022-10-16T16:02:53.533Z,4.03
2022-10-16T16:05:23.334Z,6.22
2022-10-16T16:07:51.780Z,5.13
2022-10-16T16:10:21.506Z,4.82
2022-10-16T16:12:52.893Z,2.55
2022-10-16T16:15:21.565Z,5.20
2022-10-16T16:17:49.393Z,2.55
2022-10-16T16:20:17.375Z,4.03
2022-10-16T16:22:46.515Z,3.13
2022-10-16T16:25:14.311Z,2.03
2022-10-16T16:27:42.078Z,3.72
2022-10-16T16:30:16.823Z,2.17
2022-10-16T16:32:47.518Z,2.08
2022-10-16T16:35:15.365Z,4.93
2022-10-16T16:37:43.126Z,2.70
2022-10-16T16:40:12.617Z,2.50
2022-10-16T16:42:40.421Z,2.05
2022-10-16T16:45:09.455Z,3.33
2022-10-16T16:47:37.237Z,4.22
2022-10-16T16:50:05.975Z,1.80
2022-10-16T16:52:33.722Z,3.08
2022-10-16T16:55:02.121Z,2.15
2022-10-16T16:57:31.299Z,5.30
2022-10-16T16:59:59.079Z,2.38
2022-10-16T17:02:26.953Z,4.75
2022-10-16T17:04:54.730Z,3.78
2022-10-16T17:07:24.354Z,2.28
2022-10-16T17:09:52.214Z,4.30
2022-10-16T17:12:20.210Z,2.97
2022-10-16T17:14:49.352Z,3.58
2022-10-16T17:17:17.124Z,4.53
2022-10-16T17:19:44.882Z,3.30
2022-10-16T17:22:12.649Z,4.55
2022-10-16T17:24:40.471Z,6.07
2022-10-16T17:27:08.233Z,7.28
2022-10-16T17:29:35.917Z,3.70
2022-10-16T17:32:05.072Z,4.55
2022-10-16T17:34:32.802Z,6.55
2022-10-16T17:37:00.577Z,6.70
2022-10-16T17:39:28.551Z,4.65
2022-10-16T17:41:56.805Z,4.72
2022-10-16T17:44:24.735Z,3.47
2022-10-16T17:46:53.930Z,4.65
2022-10-16T17:51:56.233Z,3.67
2022-10-16T17:54:23.934Z,3.97
2022-10-16T17:56:51.640Z,4.40
2022-10-16T17:59:22.871Z,4.25
2022-10-16T18:01:50.691Z,6.40
2022-10-16T18:04:18.911Z,4.38
2022-10-16T18:06:48.360Z,6.15
2022-10-16T18:09:18.463Z,3.83
2022-10-16T18:11:47.608Z,4.40
2022-10-16T18:14:16.069Z,5.40
2022-10-16T18:16:44.232Z,3.25
2022-10-16T18:19:12.833Z,5.03
2022-10-16T18:21:41.250Z,4.57
2022-10-16T18:24:10.836Z,4.75
2022-10-16T18:26:38.628Z,3.25
2022-10-16T18:29:06.657Z,4.88
2022-10-16T18:31:37.827Z,8.35
2022-10-16T18:34:08.351Z,8.82
2022-10-16T18:36:36.954Z,7.07
2022-10-16T18:39:09.360Z,8.80
2022-10-16T18:41:39.461Z,4.55
2022-10-16T18:44:08.166Z,6.90
2022-10-16T18:46:35.925Z,4.18
2022-10-16T18:49:04.778Z,4.97
2022-10-16T18:51:34.373Z,7.10
2022-10-16T18:54:05.488Z,4.13
2022-10-16T18:56:33.349Z,4.05
2022-10-16T18:59:04.902Z,9.20
2022-10-16T19:01:35.034Z,7.10
2022-10-16T19:04:04.329Z,3.78
2022-10-16T19:06:35.027Z,3.53
2022-10-16T19:09:02.909Z,5.40
2022-10-16T19:11:31.265Z,5.05
2022-10-16T19:13:59.138Z,4.07
2022-10-16T19:16:29.797Z,4.97
2022-10-16T19:18:58.949Z,6.05
2022-10-16T19:21:28.052Z,5.65
2022-10-16T19:23:57.011Z,4.13
2022-10-16T19:26:25.635Z,6.68
2022-10-16T19:28:54.277Z,6.45
2022-10-16T19:31:23.256Z,6.32
2022-10-16T19:33:54.304Z,4.63
2022-10-16T19:36:24.337Z,17.50
2022-10-16T19:38:54.975Z,8.63
2022-10-16T19:41:23.647Z,3.10
2022-10-16T19:43:51.427Z,3.72
2022-10-16T19:46:20.755Z,5.07
2022-10-16T19:48:49.021Z,4.18
2022-10-16T19:51:19.569Z,5.25
2022-10-16T19:53:47.982Z,12.93
2022-10-16T19:56:17.678Z,6.70
2022-10-16T19:58:46.447Z,9.95
2022-10-16T20:01:15.655Z,6.80
2022-10-16T20:03:44.378Z,9.32
2022-10-16T20:06:12.786Z,7.03
2022-10-16T20:08:44.334Z,7.45
2022-10-16T20:11:14.021Z,8.30
2022-10-16T20:13:42.549Z,7.70
2022-10-16T20:16:11.917Z,7.82
2022-10-16T20:18:39.750Z,7.57
2022-10-16T20:21:10.874Z,8.48
2022-10-16T20:23:38.780Z,5.85
2022-10-16T20:26:08.259Z,6.07
2022-10-16T20:28:36.083Z,7.90
2022-10-16T20:31:07.893Z,6.25
2022-10-16T20:33:35.677Z,5.55
2022-10-16T20:36:03.495Z,4.20
2022-10-16T20:38:31.277Z,7.75
2022-10-16T20:41:04.513Z,6.10
2022-10-16T20:43:33.788Z,8.60
2022-10-16T20:46:02.677Z,7.97
2022-10-16T20:48:30.385Z,6.47
2022-10-16T20:50:59.928Z,8.00
2022-10-16T20:53:28.778Z,8.52
2022-10-16T20:55:56.549Z,6.55
2022-10-16T20:58:24.298Z,10.23
2022-10-16T21:00:53.463Z,10.23
2022-10-16T21:03:21.382Z,7.57
2022-10-16T21:05:49.183Z,11.23
2022-10-16T21:08:17.035Z,6.55
2022-10-16T21:10:45.061Z,11.15
2022-10-16T21:13:12.814Z,8.18
2022-10-16T21:15:40.601Z,8.13
2022-10-16T21:18:09.709Z,9.90
2022-10-16T21:20:37.527Z,7.88
2022-10-16T21:23:05.287Z,8.68
2022-10-16T21:25:33.070Z,7.72
2022-10-16T21:28:00.848Z,8.73
2022-10-16T21:30:28.651Z,5.95
2022-10-16T21:32:56.451Z,8.55
2022-10-16T21:35:25.778Z,11.10
2022-10-16T21:37:53.646Z,6.43
2022-10-16T21:40:21.365Z,7.07
2022-10-16T21:42:49.244Z,9.05
2022-10-16T21:45:17.070Z,8.63
2022-10-16T21:47:44.844Z,8.52
2022-10-16T21:50:12.641Z,9.50
2022-10-16T21:52:41.946Z,8.40
2022-10-16T21:55:10.938Z,7.05
2022-10-16T21:57:39.199Z,7.88
2022-10-16T22:00:09.703Z,7.38
2022-10-16T22:02:37.584Z,7.85
2022-10-16T22:05:05.999Z,8.30
2022-10-16T22:07:33.846Z,8.23
2022-10-16T22:10:03.122Z,7.00
2022-10-16T22:12:31.347Z,7.32
2022-10-16T22:14:59.234Z,7.10
2022-10-16T22:17:27.328Z,10.00
2022-10-16T22:19:55.488Z,7.13
2022-10-16T22:22:23.302Z,6.57
2022-10-16T22:24:51.149Z,8.32
2022-10-16T22:27:20.517Z,7.85
2022-10-16T22:29:51.856Z,7.80
2022-10-16T22:32:20.024Z,8.27
2022-10-16T22:34:48.086Z,9.88
2022-10-16T22:37:16.357Z,8.20
2022-10-16T22:39:44.238Z,7.22
2022-10-16T22:42:12.070Z,6.30
2022-10-16T22:44:41.633Z,6.97
2022-10-16T22:47:09.561Z,7.65
2022-10-16T22:49:37.532Z,8.48
2022-10-16T22:52:05.699Z,6.70
2022-10-16T22:54:33.572Z,6.45
2022-10-16T22:57:01.407Z,6.35
2022-10-16T22:59:29.261Z,6.95
2022-10-16T23:01:58.510Z,6.03
2022-10-16T23:04:26.450Z,6.20
2022-10-16T23:06:54.297Z,7.32
2022-10-16T23:09:22.229Z,5.45
2022-10-16T23:11:50.039Z,6.97
2022-10-16T23:14:21.170Z,7.45
2022-10-16T23:16:49.079Z,5.75
2022-10-16T23:19:18.356Z,6.40
2022-10-16T23:21:46.221Z,5.97
2022-10-16T23:24:14.067Z,7.85
2022-10-16T23:26:41.822Z,5.68
2022-10-16T23:29:10.807Z,5.75
2022-10-16T23:31:38.744Z,5.60
2022-10-16T23:34:06.599Z,4.68
2022-10-16T23:36:35.861Z,6.50
2022-10-16T23:39:03.780Z,7.35
2022-10-16T23:41:31.617Z,5.75
2022-10-16T23:43:59.512Z,7.03
2022-10-16T23:46:27.329Z,9.65
2022-10-16T23:48:55.301Z,7.05
2022-10-16T23:51:23.285Z,7.07
2022-10-16T23:53:53.069Z,8.20
2022-10-16T23:56:21.251Z,6.90
2022-10-16T23:58:49.197Z,6.55
